Terminal Aerodrome Forecast
Issued by NWS Sterling, VA

Current Version | Previous Version | Text Only | Print | Product List | Glossary Off
Versions: 1 2 3 4 5 6 7 8 9 10 11 12 13 14 15 16 17 18 19 20 21 22 23 24 25 26 27 28 29 30 31 32

733
FTUS41 KLWX 161131
TAFIAD
TAF
KIAD 161131Z 1612/1718 00000KT 3SM BR SCT003 SCT250
      TEMPO 1612/1613 2SM BR
     FM161400 34004KT P6SM SCT050 SCT200
     FM170600 00000KT P6SM SCT050
     FM170900 00000KT 4SM BR SCT020
     FM171200 16005KT P6SM BKN040=

USA.gov is the U.S. government's official web portal to all federal, state and local government web resources and services.